Time;durP1;ratioP1;P1;durP2;ratioP2;P2;SDS_P1;SDS_P2;PMS_P1;PMS_P2;Temp;Humidity;BMP_temperature;BMP_pressure;BME280_temperature;BME280_humidity;BME280_pressure;Samples;Min_cycle;Max_cycle;Signal;HPM_P1;HPM_P2
2021/08/02 00:00:56;;;;;;;4.43;4.13;;;16.00;1.00;;;;;;5029487;28;20521;-55
2021/08/02 00:04:01;;;;;;;4.93;4.53;;;16.00;1.00;;;;;;5025536;28;20941;-50
2021/08/02 00:06:38;;;;;;;5.17;4.20;;;16.00;1.00;;;;;;5026437;28;20444;-50
2021/08/02 00:09:05;;;;;;;4.70;4.23;;;15.90;1.00;;;;;;5023287;28;20433;-50
2021/08/02 00:11:49;;;;;;;6.50;4.10;;;15.80;1.00;;;;;;5028244;28;20911;-53
2021/08/02 00:14:16;;;;;;;4.60;4.20;;;15.80;1.00;;;;;;5027465;28;20440;-52
2021/08/02 00:16:42;;;;;;;5.27;4.87;;;15.70;1.00;;;;;;5028278;28;20433;-49
2021/08/02 00:19:08;;;;;;;4.97;4.53;;;15.70;1.00;;;;;;5007345;28;20809;-55
2021/08/02 00:21:34;;;;;;;4.93;4.53;;;15.60;1.00;;;;;;5022649;28;20195;-54
2021/08/02 00:24:00;;;;;;;4.43;4.13;;;15.60;1.00;;;;;;5025195;28;20481;-53
2021/08/02 00:26:27;;;;;;;4.73;4.33;;;15.60;11.50;;;;;;5026289;28;20889;-51
2021/08/02 00:28:53;;;;;;;5.30;4.80;;;15.60;12.30;;;;;;5024749;28;20495;-48
2021/08/02 00:31:19;;;;;;;5.17;4.70;;;15.50;10.50;;;;;;5024957;28;20443;-48
2021/08/02 00:33:45;;;;;;;5.20;4.70;;;15.50;13.20;;;;;;5024076;28;20998;-50
2021/08/02 00:36:40;;;;;;;5.80;5.20;;;15.50;14.80;;;;;;5026575;28;20464;-50
2021/08/02 00:39:12;;;;;;;5.03;4.53;;;15.50;15.10;;;;;;5027841;28;20237;-50
2021/08/02 00:41:59;;;;;;;5.50;5.00;;;15.40;15.90;;;;;;5028951;28;20524;-51
2021/08/02 00:45:03;;;;;;;5.03;4.63;;;15.40;14.30;;;;;;5027745;28;20526;-49
2021/08/02 00:47:43;;;;;;;5.23;4.73;;;15.40;17.00;;;;;;5027445;28;20436;-52
2021/08/02 00:50:18;;;;;;;5.57;5.07;;;15.30;20.90;;;;;;5027978;28;20436;-53
2021/08/02 00:53:17;;;;;;;5.50;5.00;;;15.30;26.30;;;;;;5015531;28;20488;-55
2021/08/02 00:55:49;;;;;;;6.20;4.63;;;15.30;29.50;;;;;;5022470;28;20433;-50
2021/08/02 00:58:17;;;;;;;5.00;4.60;;;15.20;28.40;;;;;;5027422;28;20440;-54
2021/08/02 01:00:44;;;;;;;5.90;5.00;;;15.20;27.30;;;;;;5027861;28;20485;-49
2021/08/02 01:03:12;;;;;;;5.53;4.80;;;15.20;29.30;;;;;;5026382;28;20445;-51
2021/08/02 01:05:40;;;;;;;4.90;4.50;;;15.20;31.50;;;;;;5031846;28;20936;-53
2021/08/02 01:08:07;;;;;;;5.00;4.60;;;15.20;34.20;;;;;;5031984;28;20931;-56
2021/08/02 01:10:34;;;;;;;4.67;4.27;;;15.30;36.70;;;;;;5032053;28;20448;-54
2021/08/02 01:13:07;;;;;;;5.20;4.70;;;15.40;35.40;;;;;;5030841;28;20433;-50
2021/08/02 01:15:33;;;;;;;4.80;4.40;;;15.40;35.40;;;;;;5031423;28;20439;-53
2021/08/02 01:18:01;;;;;;;4.70;4.30;;;15.40;33.70;;;;;;5031658;28;20465;-54
2021/08/02 01:20:31;;;;;;;5.13;4.70;;;15.40;31.20;;;;;;5031182;28;20916;-52
2021/08/02 01:23:01;;;;;;;5.53;5.10;;;15.40;32.00;;;;;;5030571;28;21146;-51
2021/08/02 01:25:38;;;;;;;5.20;4.80;;;15.40;31.40;;;;;;5031690;28;20580;-54
2021/08/02 01:28:16;;;;;;;4.97;4.57;;;15.40;40.00;;;;;;5030314;28;20499;-55
2021/08/02 01:30:42;;;;;;;4.83;4.43;;;15.30;41.20;;;;;;5031186;28;20421;-50
2021/08/02 01:33:08;;;;;;;5.43;4.93;;;15.30;43.40;;;;;;5030989;28;20449;-49
2021/08/02 01:35:36;;;;;;;4.97;4.57;;;15.30;40.70;;;;;;5031572;28;20441;-51
2021/08/02 01:38:02;;;;;;;5.50;5.00;;;15.40;42.80;;;;;;5030391;28;20473;-52
2021/08/02 01:40:28;;;;;;;5.40;4.90;;;15.40;45.00;;;;;;5032522;28;20464;-49
2021/08/02 01:42:54;;;;;;;5.30;4.87;;;15.40;46.30;;;;;;5029474;28;20774;-51
2021/08/02 01:45:19;;;;;;;5.17;4.67;;;15.30;48.80;;;;;;5031461;28;20515;-48
2021/08/02 01:48:13;;;;;;;6.00;5.50;;;15.40;48.00;;;;;;5028489;28;20721;-50
2021/08/02 01:51:09;;;;;;;5.40;5.00;;;15.40;49.50;;;;;;5029505;28;20183;-50
2021/08/02 01:54:17;;;;;;;5.70;5.20;;;15.40;46.60;;;;;;5031490;28;21131;-49
2021/08/02 01:56:49;;;;;;;5.97;5.47;;;15.50;47.00;;;;;;5028097;28;20449;-50
2021/08/02 01:59:17;;;;;;;5.30;4.80;;;15.50;47.30;;;;;;5027590;28;20484;-50
2021/08/02 02:01:56;;;;;;;6.43;5.33;;;15.50;46.30;;;;;;5030844;28;20870;-51
2021/08/02 02:04:28;;;;;;;5.13;4.63;;;15.50;46.20;;;;;;5031620;28;20531;-51
2021/08/02 02:06:57;;;;;;;5.77;5.20;;;15.60;45.70;;;;;;5029793;28;20434;-51
2021/08/02 02:09:24;;;;;;;4.93;4.53;;;15.60;47.80;;;;;;5031912;28;20422;-50
2021/08/02 02:11:51;;;;;;;5.83;5.33;;;15.60;47.60;;;;;;5030657;28;20437;-48
2021/08/02 02:14:17;;;;;;;5.30;4.90;;;15.50;50.00;;;;;;5030157;28;20438;-53
2021/08/02 02:16:48;;;;;;;5.20;4.80;;;15.50;49.90;;;;;;5029623;28;20429;-50
2021/08/02 02:19:14;;;;;;;5.50;5.10;;;15.50;50.10;;;;;;5030119;28;20514;-51
2021/08/02 02:21:41;;;;;;;5.70;5.17;;;15.40;50.60;;;;;;5032238;28;20516;-51
2021/08/02 02:24:07;;;;;;;8.20;5.20;;;15.40;55.30;;;;;;5029982;28;20520;-50
2021/08/02 02:26:34;;;;;;;6.57;4.67;;;15.40;57.60;;;;;;5031626;28;20422;-48
2021/08/02 02:29:03;;;;;;;5.80;5.30;;;15.30;63.30;;;;;;5029490;28;20483;-47
2021/08/02 02:31:30;;;;;;;5.87;5.37;;;15.20;75.40;;;;;;5031658;28;20769;-52
2021/08/02 02:34:00;;;;;;;5.67;5.17;;;15.20;78.70;;;;;;5027097;28;20453;-51
2021/08/02 02:36:26;;;;;;;6.20;5.50;;;15.10;79.70;;;;;;5031420;28;20433;-52
2021/08/02 02:38:53;;;;;;;7.60;5.47;;;15.10;83.30;;;;;;5028895;28;20778;-51
2021/08/02 02:41:20;;;;;;;5.90;5.30;;;15.10;90.00;;;;;;5031233;28;20414;-51
2021/08/02 02:43:49;;;;;;;6.57;5.97;;;15.10;90.90;;;;;;5029445;28;20441;-53
2021/08/02 02:46:16;;;;;;;6.50;6.00;;;15.10;93.20;;;;;;5030007;28;20473;-50
2021/08/02 02:48:45;;;;;;;5.40;4.97;;;15.10;95.20;;;;;;5027502;28;20476;-50
2021/08/02 02:51:11;;;;;;;5.80;5.20;;;15.20;97.40;;;;;;5030165;28;20532;-50
2021/08/02 02:53:39;;;;;;;5.67;5.17;;;15.20;99.10;;;;;;5024582;28;20498;-50
2021/08/02 02:56:08;;;;;;;6.57;6.07;;;15.30;99.50;;;;;;5030045;28;20943;-53
2021/08/02 02:58:38;;;;;;;6.07;5.43;;;15.40;97.10;;;;;;5029112;28;20530;-54
2021/08/02 03:01:05;;;;;;;6.90;5.43;;;15.40;95.10;;;;;;5030939;28;20461;-50
2021/08/02 03:03:34;;;;;;;6.50;5.83;;;15.40;91.80;;;;;;5028707;28;20437;-53
2021/08/02 03:06:00;;;;;;;6.57;6.07;;;15.30;85.10;;;;;;5030594;28;20434;-51
2021/08/02 03:08:27;;;;;;;6.57;5.97;;;15.30;89.60;;;;;;5027930;28;20429;-50
2021/08/02 03:10:54;;;;;;;7.50;6.60;;;15.20;79.40;;;;;;5031234;28;20537;-49
2021/08/02 03:13:20;;;;;;;6.43;5.50;;;15.10;79.40;;;;;;5027533;28;20430;-49
2021/08/02 03:15:46;;;;;;;5.93;5.20;;;15.20;80.70;;;;;;5031041;28;20511;-52
2021/08/02 03:18:12;;;;;;;7.90;6.07;;;15.10;77.30;;;;;;5028782;28;20467;-51
2021/08/02 03:20:37;;;;;;;6.50;5.90;;;15.10;77.60;;;;;;5027418;28;20190;-53
2021/08/02 03:23:33;;;;;;;6.03;5.53;;;15.10;88.40;;;;;;5029807;28;20219;-51
2021/08/02 03:26:04;;;;;;;6.83;6.23;;;15.10;93.00;;;;;;5018394;28;20282;-48
2021/08/02 03:28:33;;;;;;;6.50;6.00;;;15.10;95.50;;;;;;5029727;28;20767;-54
2021/08/02 03:31:02;;;;;;;6.37;5.77;;;15.10;98.20;;;;;;5028776;28;20491;-49
2021/08/02 03:33:33;;;;;;;7.07;6.43;;;15.20;99.90;;;;;;5029482;28;20413;-52
2021/08/02 03:36:01;;;;;;;6.73;6.13;;;15.20;99.90;;;;;;5029148;28;20502;-53
2021/08/02 03:38:28;;;;;;;6.03;5.43;;;15.30;99.90;;;;;;5027541;28;20437;-51
2021/08/02 03:40:55;;;;;;;5.60;5.20;;;15.40;99.90;;;;;;5029522;28;20809;-51
2021/08/02 03:43:21;;;;;;;6.17;5.57;;;15.40;99.90;;;;;;5021255;28;20990;-51
2021/08/02 03:45:48;;;;;;;6.27;5.73;;;15.50;99.90;;;;;;5027808;28;20476;-52
2021/08/02 03:48:14;;;;;;;6.50;5.90;;;15.50;99.90;;;;;;5028283;28;20521;-49
2021/08/02 03:50:40;;;;;;;6.63;5.90;;;15.60;99.90;;;;;;5028379;28;20520;-53
2021/08/02 03:53:05;;;;;;;5.50;5.07;;;15.60;99.90;;;;;;5027234;28;20183;-53
2021/08/02 03:55:33;;;;;;;6.43;5.67;;;15.60;97.70;;;;;;5028814;28;20432;-50
2021/08/02 03:57:59;;;;;;;5.50;5.10;;;15.70;94.60;;;;;;5027531;28;20191;-49
2021/08/02 04:00:24;;;;;;;5.23;4.83;;;15.70;89.60;;;;;;5027174;28;20519;-47
2021/08/02 04:02:50;;;;;;;5.63;5.20;;;15.80;87.20;;;;;;5028366;28;20209;-52
2021/08/02 04:05:19;;;;;;;5.77;5.20;;;15.80;79.20;;;;;;5027182;28;20203;-54
2021/08/02 04:07:47;;;;;;;5.40;4.90;;;15.80;75.80;;;;;;5027546;28;20557;-52
2021/08/02 04:10:13;;;;;;;5.00;4.50;;;15.90;65.30;;;;;;5026723;28;20449;-52
2021/08/02 04:12:39;;;;;;;5.53;4.90;;;15.90;60.90;;;;;;5028695;28;20525;-49
2021/08/02 04:15:07;;;;;;;5.00;4.60;;;16.00;59.10;;;;;;5028535;28;20773;-49
2021/08/02 04:17:33;;;;;;;5.60;5.10;;;16.00;57.10;;;;;;5026877;28;20456;-51
2021/08/02 04:19:59;;;;;;;5.70;5.20;;;16.00;55.10;;;;;;5024134;28;20446;-52
2021/08/02 04:22:24;;;;;;;6.00;5.00;;;16.10;54.90;;;;;;5016765;28;20186;-52
2021/08/02 04:24:50;;;;;;;5.23;4.83;;;16.10;58.60;;;;;;5016031;28;20218;-52
2021/08/02 04:27:15;;;;;;;5.20;4.80;;;16.20;57.80;;;;;;5018372;28;20194;-54
2021/08/02 04:29:41;;;;;;;6.47;5.70;;;16.20;51.20;;;;;;5017092;28;20888;-50
2021/08/02 04:32:07;;;;;;;5.97;5.43;;;16.20;51.30;;;;;;5020178;28;20186;-52
2021/08/02 04:34:32;;;;;;;5.60;5.10;;;16.20;51.10;;;;;;5014716;28;20559;-53
2021/08/02 04:36:58;;;;;;;5.93;5.43;;;16.20;59.80;;;;;;5018665;28;20191;-47
2021/08/02 04:39:23;;;;;;;6.73;5.07;;;16.20;64.20;;;;;;5019564;28;20249;-50
2021/08/02 04:41:49;;;;;;;6.10;5.60;;;16.20;72.30;;;;;;5020717;28;20650;-48
2021/08/02 04:44:15;;;;;;;6.40;5.70;;;16.10;73.90;;;;;;5029037;28;20210;-49
2021/08/02 04:46:40;;;;;;;6.57;5.63;;;16.10;83.30;;;;;;5027862;28;20191;-47
2021/08/02 04:49:06;;;;;;;6.77;6.10;;;16.00;91.80;;;;;;5029110;28;20198;-48
2021/08/02 04:51:31;;;;;;;7.03;5.87;;;16.10;92.70;;;;;;5027982;28;20242;-49
2021/08/02 04:53:57;;;;;;;6.40;5.90;;;16.10;91.70;;;;;;5028983;28;20221;-51
2021/08/02 04:56:22;;;;;;;8.80;5.90;;;16.10;90.50;;;;;;5029485;28;20534;-52
2021/08/02 04:58:48;;;;;;;6.80;6.30;;;16.10;90.70;;;;;;5029022;28;20186;-51
2021/08/02 05:01:14;;;;;;;8.83;5.93;;;16.00;88.70;;;;;;5027828;28;20239;-48
2021/08/02 05:03:39;;;;;;;6.73;6.13;;;16.10;90.40;;;;;;5029240;28;20187;-46
2021/08/02 05:06:05;;;;;;;6.67;6.07;;;16.10;94.40;;;;;;5028952;28;20270;-48
2021/08/02 05:08:31;;;;;;;6.80;6.17;;;16.10;93.20;;;;;;5029158;28;20203;-51
2021/08/02 05:10:56;;;;;;;6.87;6.17;;;16.20;93.90;;;;;;5028810;28;20645;-50
2021/08/02 05:13:22;;;;;;;8.03;6.33;;;16.20;90.60;;;;;;5028270;28;20183;-52
2021/08/02 05:15:47;;;;;;;6.60;6.03;;;16.20;91.20;;;;;;5027646;28;20693;-49
2021/08/02 05:18:14;;;;;;;6.27;5.67;;;16.30;91.10;;;;;;5028106;28;20195;-49
2021/08/02 05:20:40;;;;;;;5.70;5.20;;;16.30;87.90;;;;;;5027779;28;20180;-53
2021/08/02 05:23:06;;;;;;;7.03;6.43;;;16.30;88.50;;;;;;5028934;28;21046;-51
2021/08/02 05:25:31;;;;;;;6.87;6.17;;;16.40;88.90;;;;;;5028739;28;20501;-51
2021/08/02 05:27:57;;;;;;;6.63;6.03;;;16.40;93.00;;;;;;5028428;28;20249;-51
2021/08/02 05:30:23;;;;;;;7.70;7.00;;;16.40;90.40;;;;;;5028586;28;20191;-54
2021/08/02 05:32:48;;;;;;;6.53;6.00;;;16.50;91.60;;;;;;5028864;28;20182;-47
2021/08/02 05:35:15;;;;;;;6.43;5.83;;;16.50;82.30;;;;;;5028819;28;20199;-53
2021/08/02 05:37:40;;;;;;;6.93;6.33;;;16.60;64.00;;;;;;5028828;28;20248;-49
2021/08/02 05:40:07;;;;;;;5.87;5.30;;;16.60;62.70;;;;;;5027162;28;20437;-49
2021/08/02 05:42:33;;;;;;;6.60;6.10;;;16.70;63.50;;;;;;5028830;28;20534;-49
2021/08/02 05:44:58;;;;;;;6.97;6.17;;;16.70;67.10;;;;;;5028576;28;20523;-51
2021/08/02 05:47:24;;;;;;;7.40;6.70;;;16.80;62.00;;;;;;5028996;28;20896;-50
2021/08/02 05:49:49;;;;;;;7.17;6.47;;;16.80;57.50;;;;;;5029119;28;20324;-48
2021/08/02 05:52:15;;;;;;;8.13;7.33;;;16.80;54.70;;;;;;5030396;28;20226;-49
2021/08/02 05:54:40;;;;;;;8.20;7.40;;;16.90;51.40;;;;;;5027058;28;20197;-53
2021/08/02 05:57:06;;;;;;;8.73;7.93;;;17.00;30.90;;;;;;5030358;28;20197;-55
2021/08/02 05:59:32;;;;;;;9.00;8.20;;;17.00;25.70;;;;;;5028227;28;20187;-52
2021/08/02 06:01:59;;;;;;;9.93;8.40;;;17.10;23.10;;;;;;5031077;28;20652;-50
2021/08/02 06:04:25;;;;;;;9.00;8.20;;;17.10;22.00;;;;;;5030467;28;20551;-48
2021/08/02 06:06:53;;;;;;;11.70;9.30;;;17.20;19.90;;;;;;5030747;28;20567;-51
2021/08/02 06:09:20;;;;;;;10.07;9.17;;;17.30;23.30;;;;;;5030571;28;21446;-48
2021/08/02 06:11:46;;;;;;;11.10;10.00;;;17.50;19.60;;;;;;5029736;28;20534;-50
2021/08/02 06:14:11;;;;;;;10.80;9.80;;;17.60;6.90;;;;;;5027868;28;20441;-50
2021/08/02 06:16:37;;;;;;;11.03;10.10;;;17.80;1.00;;;;;;5030820;28;20209;-54
2021/08/02 06:19:03;;;;;;;10.47;9.17;;;18.00;1.00;;;;;;5030443;28;20193;-48
2021/08/02 06:21:28;;;;;;;9.77;8.87;;;18.20;1.00;;;;;;5030831;28;20188;-51
2021/08/02 06:23:54;;;;;;;9.80;8.90;;;18.20;1.00;;;;;;5030071;28;20418;-51
2021/08/02 06:26:20;;;;;;;9.50;8.70;;;18.20;1.00;;;;;;5029666;28;20184;-51
2021/08/02 06:28:46;;;;;;;9.80;9.00;;;18.50;1.00;;;;;;5029731;28;20184;-48
2021/08/02 06:31:11;;;;;;;10.33;9.43;;;18.60;1.00;;;;;;5030039;28;20432;-51
2021/08/02 06:33:37;;;;;;;10.57;9.43;;;18.60;1.00;;;;;;5029554;28;20250;-50
2021/08/02 06:36:03;;;;;;;9.80;8.87;;;18.70;1.00;;;;;;5030518;28;20188;-54
2021/08/02 06:38:32;;;;;;;9.63;8.77;;;18.80;1.00;;;;;;5028868;28;20183;-52
2021/08/02 06:40:58;;;;;;;10.23;9.33;;;18.80;1.00;;;;;;5029724;28;20190;-52
2021/08/02 06:43:24;;;;;;;10.33;9.30;;;18.90;1.00;;;;;;5029561;28;21328;-50
2021/08/02 06:45:49;;;;;;;9.90;9.10;;;18.80;1.00;;;;;;5030434;28;20564;-50
2021/08/02 06:48:15;;;;;;;10.20;9.27;;;18.70;1.00;;;;;;5030453;28;20230;-47
2021/08/02 06:50:40;;;;;;;11.07;10.07;;;18.70;1.00;;;;;;5029146;28;20181;-50
2021/08/02 06:53:06;;;;;;;11.30;10.30;;;18.60;1.00;;;;;;5027369;28;20193;-51
2021/08/02 06:55:31;;;;;;;13.50;12.20;;;18.50;1.00;;;;;;5030320;28;20193;-50
2021/08/02 06:57:57;;;;;;;15.13;13.50;;;18.50;1.00;;;;;;5028519;28;20192;-49
2021/08/02 07:00:23;;;;;;;14.23;12.90;;;18.40;1.00;;;;;;5028833;28;20589;-50
2021/08/02 07:02:49;;;;;;;15.00;13.53;;;18.30;1.00;;;;;;5029142;28;20429;-54
2021/08/02 07:05:14;;;;;;;14.80;13.27;;;18.20;1.00;;;;;;5029091;28;20290;-51
2021/08/02 07:07:40;;;;;;;15.70;13.97;;;18.20;1.00;;;;;;5030396;28;20653;-52
2021/08/02 07:10:07;;;;;;;16.97;15.43;;;18.30;1.00;;;;;;5030131;28;20202;-51
2021/08/02 07:12:33;;;;;;;15.88;13.40;;;18.20;1.00;;;;;;5029463;28;20179;-52
2021/08/02 07:14:59;;;;;;;14.97;13.57;;;18.20;1.00;;;;;;5030120;28;20184;-50
2021/08/02 07:17:24;;;;;;;14.43;13.10;;;18.20;1.00;;;;;;5028584;28;20443;-50
2021/08/02 07:19:50;;;;;;;15.07;13.67;;;18.20;1.00;;;;;;5029075;28;20193;-52
2021/08/02 07:22:16;;;;;;;14.63;13.23;;;18.20;1.00;;;;;;5028918;28;20237;-53
2021/08/02 07:24:41;;;;;;;16.20;14.57;;;18.20;1.00;;;;;;5029427;28;20577;-50
2021/08/02 07:27:07;;;;;;;16.27;14.60;;;18.10;1.00;;;;;;5029401;28;20214;-52
2021/08/02 07:29:32;;;;;;;16.27;14.77;;;18.00;1.00;;;;;;5035840;28;20211;-51
2021/08/02 07:31:58;;;;;;;18.60;16.57;;;18.00;1.00;;;;;;5032542;28;20191;-53
2021/08/02 07:34:23;;;;;;;18.30;16.40;;;17.80;2.90;;;;;;5029337;28;20187;-50
2021/08/02 07:36:49;;;;;;;18.70;16.90;;;17.60;11.90;;;;;;5027329;28;20595;-54
2021/08/02 07:39:14;;;;;;;17.97;16.13;;;17.30;27.00;;;;;;5024851;28;20183;-54
2021/08/02 07:41:40;;;;;;;19.93;18.03;;;17.30;32.20;;;;;;5028397;28;20263;-54
2021/08/02 07:44:05;;;;;;;20.53;18.50;;;17.20;44.20;;;;;;5029250;28;20214;-53
2021/08/02 07:46:31;;;;;;;19.67;17.77;;;17.10;69.90;;;;;;5028789;28;20179;-52
2021/08/02 07:48:57;;;;;;;20.87;18.80;;;16.90;90.80;;;;;;5029158;28;20228;-53
2021/08/02 07:51:23;;;;;;;19.50;17.60;;;16.70;99.90;;;;;;5028013;28;20437;-52
2021/08/02 07:53:49;;;;;;;20.57;18.47;;;16.70;99.90;;;;;;5026206;28;20194;-49
2021/08/02 07:56:14;;;;;;;19.47;17.60;;;16.60;99.90;;;;;;5029142;28;20187;-51
2021/08/02 07:58:40;;;;;;;19.47;17.63;;;16.60;99.90;;;;;;5027159;28;20445;-52
2021/08/02 08:01:06;;;;;;;20.10;18.07;;;16.60;99.90;;;;;;5027575;28;20234;-51
2021/08/02 08:03:31;;;;;;;20.80;18.90;;;16.60;99.90;;;;;;5029118;28;20286;-51
2021/08/02 08:05:57;;;;;;;21.23;19.23;;;16.60;99.90;;;;;;5028815;28;20213;-50
2021/08/02 08:08:23;;;;;;;20.60;18.60;;;16.60;99.90;;;;;;5028189;28;20237;-50
2021/08/02 08:10:48;;;;;;;20.80;18.70;;;16.60;99.90;;;;;;5029007;28;20182;-51
2021/08/02 08:13:14;;;;;;;18.40;16.67;;;16.60;99.90;;;;;;5028382;28;20317;-51
2021/08/02 08:15:40;;;;;;;12.20;11.07;;;16.60;99.90;;;;;;5028002;28;20430;-51
2021/08/02 08:18:05;;;;;;;7.70;6.93;;;16.50;99.90;;;;;;5028802;28;20194;-51
2021/08/02 08:20:31;;;;;;;5.70;5.17;;;16.40;99.90;;;;;;5028753;28;20183;-51
2021/08/02 08:22:57;;;;;;;4.87;4.47;;;16.40;97.00;;;;;;5027989;28;20198;-52
2021/08/02 08:25:24;;;;;;;4.30;4.00;;;16.20;99.60;;;;;;5028628;28;20477;-46
2021/08/02 08:27:50;;;;;;;4.83;4.40;;;16.20;97.30;;;;;;5028609;28;20426;-50
2021/08/02 08:30:17;;;;;;;4.53;4.13;;;16.10;99.90;;;;;;5024969;28;20469;-49
2021/08/02 08:32:42;;;;;;;4.33;3.90;;;16.10;99.90;;;;;;5028281;28;20548;-49
2021/08/02 08:35:09;;;;;;;4.37;3.97;;;16.00;99.90;;;;;;5028625;28;20508;-48
2021/08/02 08:37:35;;;;;;;5.07;4.47;;;16.00;99.90;;;;;;5027184;28;20197;-49
2021/08/02 08:40:01;;;;;;;4.53;4.13;;;16.10;99.90;;;;;;5028610;28;20430;-49
2021/08/02 08:42:27;;;;;;;4.47;4.03;;;16.10;99.90;;;;;;5026410;28;20555;-51
2021/08/02 08:44:53;;;;;;;4.80;3.67;;;16.10;99.90;;;;;;5026723;28;20465;-50
2021/08/02 08:47:18;;;;;;;4.70;4.30;;;16.20;99.90;;;;;;5028517;28;20422;-51
2021/08/02 08:49:44;;;;;;;4.10;3.80;;;16.10;99.90;;;;;;5028450;28;20669;-52
2021/08/02 08:52:09;;;;;;;4.73;4.33;;;16.10;99.90;;;;;;5027619;28;20618;-51
2021/08/02 08:54:37;;;;;;;4.43;4.03;;;16.20;99.90;;;;;;5028228;28;20865;-51
2021/08/02 08:57:03;;;;;;;4.60;4.23;;;16.20;99.90;;;;;;5028025;28;20183;-48
2021/08/02 08:59:29;;;;;;;5.73;5.23;;;16.40;99.90;;;;;;5027610;28;20532;-53
2021/08/02 09:02:03;;;;;;;4.30;3.90;;;16.50;99.90;;;;;;5028408;28;20523;-51
2021/08/02 09:04:30;;;;;;;4.97;4.47;;;16.60;99.90;;;;;;5026952;28;20461;-50
2021/08/02 09:06:58;;;;;;;3.90;3.50;;;16.70;99.90;;;;;;5028428;28;20544;-50
2021/08/02 09:09:33;;;;;;;4.70;4.17;;;16.70;99.90;;;;;;5027774;28;20484;-48
2021/08/02 09:12:07;;;;;;;4.60;4.20;;;16.90;99.90;;;;;;5028279;28;20427;-51
2021/08/02 09:14:33;;;;;;;3.90;3.60;;;16.90;99.90;;;;;;5027533;28;20516;-50
2021/08/02 09:17:00;;;;;;;4.37;3.87;;;17.00;99.90;;;;;;5028365;28;20533;-48
2021/08/02 09:19:38;;;;;;;3.93;3.63;;;17.00;99.90;;;;;;5028164;28;20416;-52
2021/08/02 09:22:04;;;;;;;4.50;4.10;;;17.10;99.90;;;;;;5027399;28;20426;-51
2021/08/02 09:24:34;;;;;;;4.30;4.00;;;17.20;99.90;;;;;;5027977;28;20473;-53
2021/08/02 09:27:00;;;;;;;3.33;3.13;;;17.40;99.80;;;;;;5031769;28;20443;-52
2021/08/02 09:29:31;;;;;;;5.60;5.20;;;17.70;99.90;;;;;;5031175;28;20433;-46
2021/08/02 09:31:57;;;;;;;4.00;3.60;;;18.60;99.90;;;;;;5031893;28;20421;-50
2021/08/02 09:34:23;;;;;;;4.07;3.77;;;19.70;95.80;;;;;;5019276;28;20445;-49
2021/08/02 09:36:55;;;;;;;3.50;3.20;;;20.60;1.00;;;;;;5031911;28;20460;-50
2021/08/02 09:39:22;;;;;;;3.50;3.20;;;21.40;1.00;;;;;;5029822;28;20974;-52
2021/08/02 09:41:47;;;;;;;3.47;3.27;;;21.80;1.00;;;;;;5031593;28;20456;-49
2021/08/02 09:44:25;;;;;;;3.40;3.20;;;21.80;1.00;;;;;;5030436;28;20555;-53
2021/08/02 09:46:58;;;;;;;4.20;3.90;;;21.90;1.00;;;;;;5031739;28;20180;-53
2021/08/02 09:49:25;;;;;;;4.97;4.57;;;21.80;1.00;;;;;;5030964;28;20434;-58
2021/08/02 09:51:52;;;;;;;4.23;3.97;;;21.70;99.90;;;;;;5031267;28;20521;-58
2021/08/02 09:54:29;;;;;;;3.90;3.60;;;21.60;1.00;;;;;;5031261;28;20530;-58
2021/08/02 09:56:55;;;;;;;3.97;3.67;;;21.90;1.00;;;;;;5029951;28;20435;-59
2021/08/02 09:59:21;;;;;;;4.03;3.73;;;22.10;99.90;;;;;;5030932;28;20419;-58
2021/08/02 10:01:48;;;;;;;4.13;3.77;;;22.40;99.90;;;;;;5029890;28;20511;-58
2021/08/02 10:04:15;;;;;;;4.07;3.77;;;22.70;94.30;;;;;;5030999;28;20514;-58
2021/08/02 10:06:41;;;;;;;4.00;3.70;;;22.90;99.90;;;;;;5031395;28;20815;-59
2021/08/02 10:09:10;;;;;;;4.43;4.13;;;23.60;1.00;;;;;;5029720;28;20968;-59
2021/08/02 10:11:35;;;;;;;4.63;4.33;;;24.10;1.00;;;;;;5030959;28;20424;-58
2021/08/02 10:14:01;;;;;;;5.23;4.83;;;24.20;21.90;;;;;;5024061;28;20445;-59
2021/08/02 10:16:29;;;;;;;5.33;5.03;;;24.40;99.90;;;;;;5030797;28;20240;-59
2021/08/02 10:19:06;;;;;;;5.20;4.90;;;24.50;99.90;;;;;;5030044;28;20214;-58
2021/08/02 10:21:43;;;;;;;6.20;5.90;;;24.50;1.00;;;;;;5031550;28;20749;-57
2021/08/02 10:24:16;;;;;;;6.23;5.83;;;24.50;1.00;;;;;;5029788;28;20791;-58
2021/08/02 10:26:56;;;;;;;7.07;6.67;;;24.70;1.00;;;;;;5029402;28;20548;-59
2021/08/02 10:29:22;;;;;;;6.73;6.23;;;25.30;99.90;;;;;;5024769;28;20447;-58
2021/08/02 10:31:55;;;;;;;6.53;6.13;;;25.80;1.00;;;;;;5027453;28;20447;-56
2021/08/02 10:34:22;;;;;;;6.50;6.10;;;25.70;99.90;;;;;;5029785;28;20274;-56
2021/08/02 10:37:03;;;;;;;7.37;6.87;;;26.30;1.00;;;;;;5029487;28;20414;-56
2021/08/02 10:39:30;;;;;;;7.03;6.63;;;26.30;1.00;;;;;;5029477;28;20425;-58
2021/08/02 10:42:09;;;;;;;7.60;7.20;;;26.90;1.00;;;;;;5030591;28;20480;-57
2021/08/02 10:44:35;;;;;;;7.60;7.20;;;27.50;99.90;;;;;;5028271;28;20518;-56
2021/08/02 10:47:07;;;;;;;7.17;6.77;;;28.10;99.90;;;;;;5030335;28;20425;-57
2021/08/02 10:49:33;;;;;;;7.80;7.37;;;28.80;99.90;;;;;;5028934;28;20183;-57
2021/08/02 10:52:00;;;;;;;7.40;7.00;;;29.20;99.90;;;;;;5030482;28;20462;-57
2021/08/02 10:54:39;;;;;;;7.33;6.90;;;29.50;99.90;;;;;;5028838;28;20198;-56
2021/08/02 10:57:14;;;;;;;8.00;7.50;;;29.20;99.90;;;;;;5030178;28;20939;-56
2021/08/02 10:59:40;;;;;;;6.50;6.20;;;29.10;99.90;;;;;;5028986;28;20433;-56
2021/08/02 11:02:12;;;;;;;7.20;6.90;;;28.80;99.90;;;;;;5029999;28;20452;-56
2021/08/02 11:04:39;;;;;;;7.13;6.73;;;29.10;99.90;;;;;;5028822;28;20501;-58
2021/08/02 11:07:05;;;;;;;7.20;6.90;;;29.50;99.90;;;;;;5029905;28;20418;-58
2021/08/02 11:09:33;;;;;;;6.93;6.63;;;29.60;99.90;;;;;;5029023;28;20433;-58
2021/08/02 11:12:13;;;;;;;6.90;6.60;;;29.50;99.90;;;;;;5029524;28;20493;-56
2021/08/02 11:14:46;;;;;;;6.73;6.43;;;30.20;99.90;;;;;;5018443;28;20433;-57
2021/08/02 11:17:16;;;;;;;6.90;6.60;;;29.90;99.90;;;;;;5028789;28;20445;-58
2021/08/02 11:19:42;;;;;;;8.13;7.73;;;28.90;99.90;;;;;;5027937;28;20428;-58
2021/08/02 11:22:08;;;;;;;7.93;7.53;;;27.60;99.90;;;;;;5028652;28;20809;-57
2021/08/02 11:24:36;;;;;;;8.50;8.10;;;27.30;99.90;;;;;;5026437;28;20202;-57
2021/08/02 11:27:05;;;;;;;7.83;7.43;;;26.70;99.90;;;;;;5028890;28;20428;-57
2021/08/02 11:29:33;;;;;;;7.20;6.90;;;27.00;99.90;;;;;;5028782;28;20419;-57
2021/08/02 11:32:09;;;;;;;7.93;7.53;;;26.90;99.90;;;;;;5029482;28;20448;-58
2021/08/02 11:34:36;;;;;;;7.73;7.33;;;26.30;99.90;;;;;;5017542;28;21121;-57
2021/08/02 11:37:04;;;;;;;7.23;6.83;;;25.70;99.90;;;;;;5029659;28;20417;-56
2021/08/02 11:39:32;;;;;;;7.10;6.80;;;25.10;99.90;;;;;;5028453;28;21138;-57
2021/08/02 11:42:05;;;;;;;7.17;6.87;;;24.90;99.90;;;;;;5028378;28;20483;-53
2021/08/02 11:44:32;;;;;;;8.20;7.50;;;25.00;99.90;;;;;;5029355;28;20948;-57
2021/08/02 11:46:59;;;;;;;7.90;7.37;;;25.40;99.90;;;;;;5028496;28;20441;-57
2021/08/02 11:49:26;;;;;;;8.60;8.20;;;26.50;99.90;;;;;;5028714;28;20416;-57
2021/08/02 11:51:53;;;;;;;8.00;7.60;;;27.90;99.90;;;;;;5027887;28;20432;-57
2021/08/02 11:54:24;;;;;;;8.00;7.60;;;28.90;99.90;;;;;;5027720;28;20955;-58
2021/08/02 11:56:50;;;;;;;7.90;7.50;;;29.10;99.90;;;;;;5028229;28;20449;-57
2021/08/02 11:59:26;;;;;;;7.83;7.43;;;28.70;99.90;;;;;;5029075;28;20483;-56
2021/08/02 12:01:54;;;;;;;7.90;7.60;;;28.40;99.90;;;;;;5026324;28;20477;-55
2021/08/02 12:04:21;;;;;;;7.77;7.37;;;28.80;99.90;;;;;;5028604;28;20955;-57
2021/08/02 12:06:51;;;;;;;6.40;6.10;;;30.10;99.90;;;;;;5028796;28;20435;-58
2021/08/02 12:09:16;;;;;;;7.50;7.10;;;30.40;99.90;;;;;;5028194;28;20467;-58
2021/08/02 12:11:42;;;;;;;7.00;6.70;;;30.40;99.90;;;;;;5026706;28;20511;-58
2021/08/02 12:14:08;;;;;;;6.63;6.30;;;31.10;99.90;;;;;;5029018;28;20186;-58
2021/08/02 12:16:34;;;;;;;5.87;5.57;;;31.30;99.90;;;;;;5028267;28;20294;-57
2021/08/02 12:19:10;;;;;;;5.77;5.57;;;31.80;99.90;;;;;;5028584;28;20183;-57
2021/08/02 12:21:37;;;;;;;5.10;4.90;;;32.40;99.90;;;;;;5028276;28;20193;-57
2021/08/02 12:24:14;;;;;;;6.10;5.70;;;32.10;99.90;;;;;;5020072;28;20435;-57
2021/08/02 12:27:00;;;;;;;5.80;5.50;;;30.80;99.90;;;;;;5027986;28;20413;-58
2021/08/02 12:29:28;;;;;;;5.43;5.23;;;30.20;99.90;;;;;;5023856;28;20445;-56
2021/08/02 12:31:56;;;;;;;6.40;6.10;;;30.10;99.90;;;;;;5027953;28;21094;-55
2021/08/02 12:34:22;;;;;;;6.30;6.00;;;29.60;99.90;;;;;;5027695;28;20421;-57
2021/08/02 12:36:48;;;;;;;5.13;4.93;;;29.10;99.90;;;;;;5027770;28;20944;-59
2021/08/02 12:39:13;;;;;;;5.20;5.00;;;29.00;99.90;;;;;;5016192;28;20490;-58
2021/08/02 12:41:39;;;;;;;4.63;4.43;;;29.00;99.90;;;;;;5035680;28;20189;-58
2021/08/02 12:44:05;;;;;;;5.17;4.87;;;28.80;99.90;;;;;;5031422;28;20243;-58
2021/08/02 12:46:30;;;;;;;5.43;5.23;;;27.90;99.90;;;;;;5027209;28;20551;-57
2021/08/02 12:48:56;;;;;;;5.17;4.97;;;27.40;99.90;;;;;;5028517;28;20514;-58
2021/08/02 12:51:22;;;;;;;5.70;5.40;;;27.20;99.90;;;;;;5027505;28;20185;-58